createdAt,value
2023-01-04T00:00:10.187Z,1.51
2023-01-04T00:02:38.628Z,1.59
2023-01-04T00:05:07.949Z,1.54
2023-01-04T00:07:36.289Z,1.53
2023-01-04T00:10:06.432Z,1.66
2023-01-04T00:12:37.119Z,1.49
2023-01-04T00:15:08.528Z,1.44
2023-01-04T00:17:37.391Z,1.27
2023-01-04T00:20:06.471Z,1.26
2023-01-04T00:22:35.469Z,1.26
2023-01-04T00:25:03.938Z,1.28
2023-01-04T00:27:32.146Z,1.34
2023-01-04T00:30:00.361Z,1.27
2023-01-04T00:32:30.020Z,1.28
2023-01-04T00:34:58.241Z,1.38
2023-01-04T00:37:26.453Z,1.44
2023-01-04T00:39:54.752Z,1.55
2023-01-04T00:42:23.003Z,1.50
2023-01-04T00:44:51.182Z,1.50
2023-01-04T00:47:19.657Z,1.45
2023-01-04T00:49:49.231Z,1.43
2023-01-04T00:52:17.867Z,1.29
2023-01-04T00:54:46.390Z,1.22
2023-01-04T00:57:14.621Z,1.31
2023-01-04T00:59:42.869Z,1.20
2023-01-04T01:02:11.226Z,1.15
2023-01-04T01:04:39.555Z,1.23
2023-01-04T01:07:13.668Z,1.25
2023-01-04T01:09:41.887Z,1.23
2023-01-04T01:12:10.121Z,1.22
2023-01-04T01:14:39.676Z,1.15
2023-01-04T01:17:07.967Z,1.25
2023-01-04T01:19:36.440Z,1.22
2023-01-04T01:22:04.701Z,1.32
2023-01-04T01:24:34.226Z,1.30
2023-01-04T01:27:03.916Z,1.35
2023-01-04T01:29:32.323Z,1.30
2023-01-04T01:32:00.625Z,1.26
2023-01-04T01:34:28.896Z,1.26
2023-01-04T01:36:57.157Z,1.06
2023-01-04T01:39:25.368Z,1.07
2023-01-04T01:41:54.966Z,1.15
2023-01-04T01:44:59.698Z,1.02
2023-01-04T01:47:37.704Z,1.13
2023-01-04T01:50:21.524Z,0.96
2023-01-04T01:52:51.359Z,0.89
2023-01-04T01:55:19.744Z,0.88
2023-01-04T01:57:51.832Z,0.91
2023-01-04T02:00:23.735Z,1.01
2023-01-04T02:03:00.810Z,1.03
2023-01-04T02:05:31.050Z,0.46
2023-01-04T02:08:00.414Z,0.82
2023-01-04T02:10:28.727Z,0.83
2023-01-04T02:13:05.692Z,0.87
2023-01-04T02:15:48.713Z,0.93
2023-01-04T02:18:23.289Z,0.70
2023-01-04T02:20:58.617Z,0.67
2023-01-04T02:24:19.239Z,0.71
2023-01-04T02:27:40.044Z,0.57
2023-01-04T02:31:10.827Z,0.61
2023-01-04T02:33:50.514Z,0.63
2023-01-04T02:36:25.679Z,0.61
2023-01-04T02:39:06.577Z,0.59
2023-01-04T02:41:39.629Z,0.58
2023-01-04T02:44:34.940Z,0.54
2023-01-04T02:47:08.134Z,0.40
2023-01-04T02:50:04.267Z,0.60
2023-01-04T02:52:34.391Z,0.80
2023-01-04T02:55:06.288Z,0.79
2023-01-04T02:57:49.478Z,0.68
2023-01-04T03:00:35.852Z,0.87
2023-01-04T03:03:36.733Z,0.80
2023-01-04T03:06:17.011Z,0.74
2023-01-04T03:08:56.775Z,0.73
2023-01-04T03:11:50.244Z,0.56
2023-01-04T03:14:31.907Z,0.56
2023-01-04T03:17:03.396Z,0.54
2023-01-04T03:19:54.029Z,0.42
2023-01-04T03:22:50.888Z,0.44
2023-01-04T03:25:43.665Z,0.05
2023-01-04T03:28:32.944Z,0.25
2023-01-04T03:31:36.129Z,0.35
2023-01-04T03:34:21.936Z,0.42
2023-01-04T03:40:31.495Z,0.34
2023-01-04T03:43:25.101Z,0.16
2023-01-04T03:46:17.076Z,0.44
2023-01-04T03:48:50.005Z,0.26
2023-01-04T03:51:24.128Z,0.33
2023-01-04T03:53:58.648Z,0.30
2023-01-04T03:56:29.781Z,0.46
2023-01-04T03:58:58.458Z,0.42
2023-01-04T04:01:29.124Z,0.48
2023-01-04T04:04:14.801Z,0.53
2023-01-04T04:07:00.835Z,0.64
2023-01-04T04:09:29.095Z,0.59
2023-01-04T04:11:59.131Z,0.71
2023-01-04T04:14:27.566Z,0.75
2023-01-04T04:16:55.882Z,0.66
2023-01-04T04:19:24.086Z,0.86
2023-01-04T04:21:52.381Z,0.78
2023-01-04T04:24:24.343Z,0.94
2023-01-04T04:26:54.453Z,1.05
2023-01-04T04:29:24.996Z,0.93
2023-01-04T04:31:53.762Z,0.87
2023-01-04T04:34:21.989Z,0.84
2023-01-04T04:36:50.223Z,0.80
2023-01-04T04:39:18.665Z,0.75
2023-01-04T04:41:45.893Z,0.76
2023-01-04T04:44:16.254Z,0.77
2023-01-04T04:46:46.836Z,0.84
2023-01-04T04:49:16.257Z,0.73
2023-01-04T04:51:46.306Z,0.68
2023-01-04T04:54:19.952Z,0.59
2023-01-04T04:56:48.849Z,0.67
2023-01-04T04:59:17.764Z,0.69
2023-01-04T05:01:48.292Z,0.71
2023-01-04T05:04:20.976Z,0.82
2023-01-04T05:06:50.841Z,0.76
2023-01-04T05:09:19.097Z,0.89
2023-01-04T05:12:04.803Z,0.87
2023-01-04T05:14:33.013Z,0.92
2023-01-04T05:17:02.660Z,0.72
2023-01-04T05:19:31.101Z,0.85
2023-01-04T05:21:59.287Z,0.85
2023-01-04T05:24:27.512Z,1.04
2023-01-04T05:26:55.729Z,0.84
2023-01-04T05:29:41.710Z,1.05
2023-01-04T05:32:11.350Z,1.03
2023-01-04T05:34:39.734Z,1.24
2023-01-04T05:37:07.935Z,1.29
2023-01-04T05:39:36.158Z,1.28
2023-01-04T05:42:22.027Z,1.27
2023-01-04T05:44:50.157Z,1.14
2023-01-04T05:47:19.687Z,0.88
2023-01-04T05:49:47.928Z,0.98
2023-01-04T05:52:16.410Z,1.08
2023-01-04T05:54:44.650Z,1.11
2023-01-04T05:57:13.090Z,0.62
2023-01-04T05:59:42.261Z,1.24
2023-01-04T06:02:17.557Z,1.27
2023-01-04T06:04:51.485Z,1.27
2023-01-04T06:07:23.641Z,1.32
2023-01-04T06:09:52.932Z,1.31
2023-01-04T06:12:21.340Z,1.33
2023-01-04T06:14:49.597Z,1.25
2023-01-04T06:17:17.989Z,0.78
2023-01-04T06:19:47.699Z,1.40
2023-01-04T06:22:15.886Z,1.27
2023-01-04T06:24:44.104Z,1.37
2023-01-04T06:27:12.798Z,1.50
2023-01-04T06:29:40.991Z,1.38
2023-01-04T06:32:09.209Z,1.57
2023-01-04T06:34:37.398Z,1.67
2023-01-04T06:37:07.043Z,1.51
2023-01-04T06:39:35.240Z,1.64
2023-01-04T06:42:06.704Z,1.67
2023-01-04T06:44:35.528Z,1.71
2023-01-04T06:47:03.759Z,1.66
2023-01-04T06:49:32.001Z,1.78
2023-01-04T06:52:00.287Z,1.84
2023-01-04T06:54:30.151Z,1.89
2023-01-04T06:56:58.361Z,1.94
2023-01-04T06:59:26.556Z,2.07
2023-01-04T07:01:58.453Z,1.94
2023-01-04T07:04:27.295Z,1.98
2023-01-04T07:06:55.913Z,2.06
2023-01-04T07:09:24.047Z,2.05
2023-01-04T07:11:53.600Z,2.03
2023-01-04T07:14:21.816Z,2.20
2023-01-04T07:16:50.371Z,2.10
2023-01-04T07:19:18.765Z,2.08
2023-01-04T07:21:47.001Z,1.84
2023-01-04T07:24:15.207Z,2.08
2023-01-04T07:26:43.403Z,2.20
2023-01-04T07:29:16.814Z,2.32
2023-01-04T07:31:48.024Z,2.27
2023-01-04T07:34:18.718Z,2.28
2023-01-04T07:36:47.960Z,2.35
2023-01-04T07:39:17.248Z,2.34
2023-01-04T07:41:46.445Z,2.33
2023-01-04T07:44:21.552Z,2.55
2023-01-04T07:46:49.975Z,2.55
2023-01-04T07:49:19.270Z,2.68
2023-01-04T07:51:48.931Z,2.67
2023-01-04T07:54:18.272Z,2.91
2023-01-04T07:56:48.538Z,2.90
2023-01-04T07:59:20.675Z,2.97
2023-01-04T08:01:50.900Z,3.04
2023-01-04T08:04:23.517Z,2.73
2023-01-04T08:06:52.180Z,3.43
2023-01-04T08:09:20.826Z,3.35
2023-01-04T08:11:49.059Z,3.37
2023-01-04T08:14:17.251Z,3.49
2023-01-04T08:16:46.770Z,3.55
2023-01-04T08:19:18.131Z,3.63
2023-01-04T08:21:46.715Z,3.73
2023-01-04T08:24:21.040Z,3.78
2023-01-04T08:26:49.282Z,3.81
2023-01-04T08:29:18.033Z,3.82
2023-01-04T08:31:47.632Z,3.97
2023-01-04T08:34:15.845Z,2.31
2023-01-04T08:36:49.554Z,3.96
2023-01-04T08:39:18.526Z,4.08
2023-01-04T08:41:59.409Z,4.19
2023-01-04T08:44:31.412Z,4.16
2023-01-04T08:47:01.046Z,4.19
2023-01-04T08:49:29.313Z,4.66
2023-01-04T08:51:57.517Z,4.25
2023-01-04T08:54:25.714Z,4.30
2023-01-04T08:56:53.998Z,4.30
2023-01-04T08:59:22.208Z,4.47
2023-01-04T09:01:50.504Z,4.31
2023-01-04T09:04:26.007Z,4.39
2023-01-04T09:06:54.960Z,4.38
2023-01-04T09:09:23.188Z,4.49
2023-01-04T09:11:51.371Z,4.53
2023-01-04T09:14:19.603Z,4.53
2023-01-04T09:16:47.822Z,4.54
2023-01-04T09:19:21.674Z,4.55
2023-01-04T09:21:51.896Z,4.65
2023-01-04T09:24:20.353Z,4.79
2023-01-04T09:26:49.036Z,4.66
2023-01-04T09:29:17.555Z,4.88
2023-01-04T09:31:46.325Z,4.79
2023-01-04T09:34:17.045Z,4.94
2023-01-04T09:36:47.617Z,4.97
2023-01-04T09:39:23.090Z,5.08
2023-01-04T09:41:58.891Z,4.89
2023-01-04T09:47:38.848Z,5.07
2023-01-04T09:50:15.102Z,5.08
2023-01-04T09:52:57.717Z,5.20
2023-01-04T09:55:37.462Z,5.21
2023-01-04T09:58:24.226Z,4.38
2023-01-04T10:00:59.608Z,5.18
2023-01-04T10:03:33.001Z,5.21
2023-01-04T10:06:03.708Z,5.20
2023-01-04T10:08:32.355Z,5.21
2023-01-04T10:11:20.415Z,5.19
2023-01-04T10:14:05.157Z,5.33
2023-01-04T10:23:00.114Z,5.47
2023-01-04T10:25:40.545Z,5.55
2023-01-04T10:28:29.758Z,5.54
2023-01-04T10:31:40.433Z,5.62
2023-01-04T10:34:06.055Z,5.51
2023-01-04T10:36:34.233Z,5.62
2023-01-04T10:39:05.671Z,5.83
2023-01-04T10:41:38.649Z,5.67
2023-01-04T10:44:17.419Z,5.81
2023-01-04T10:46:57.525Z,5.32
2023-01-04T10:49:36.948Z,6.00
2023-01-04T10:52:11.025Z,6.10
2023-01-04T10:54:44.726Z,6.11
2023-01-04T10:57:19.833Z,6.05
2023-01-04T10:59:55.055Z,6.20
2023-01-04T11:02:34.866Z,6.13
2023-01-04T11:05:13.199Z,6.22
2023-01-04T11:07:52.806Z,6.33
2023-01-04T11:10:26.331Z,6.31
2023-01-04T11:12:54.670Z,6.38
2023-01-04T11:15:24.459Z,6.41
2023-01-04T11:17:53.567Z,6.43
2023-01-04T11:20:26.736Z,6.15
2023-01-04T11:23:00.321Z,6.52
2023-01-04T11:25:36.271Z,6.65
2023-01-04T11:28:16.801Z,5.66
2023-01-04T11:30:56.545Z,6.25
2023-01-04T11:33:26.415Z,6.68
2023-01-04T11:35:58.886Z,6.62
2023-01-04T11:38:30.331Z,6.88
2023-01-04T11:41:01.791Z,6.57
2023-01-04T11:43:31.637Z,6.89
2023-01-04T11:46:05.155Z,6.82
2023-01-04T11:48:40.696Z,6.84
2023-01-04T11:51:20.724Z,6.93
2023-01-04T11:53:59.777Z,7.03
2023-01-04T11:56:30.199Z,6.76
2023-01-04T11:59:20.974Z,7.09
2023-01-04T12:02:50.571Z,7.02
2023-01-04T12:05:24.579Z,7.06
2023-01-04T12:07:58.397Z,7.04
2023-01-04T12:10:28.972Z,7.02
2023-01-04T12:12:58.050Z,7.00
2023-01-04T12:15:35.650Z,7.02
2023-01-04T12:18:12.185Z,7.06
2023-01-04T12:20:40.406Z,7.05
2023-01-04T12:23:15.184Z,7.01
2023-01-04T12:25:47.149Z,6.94
2023-01-04T12:28:34.965Z,7.07
2023-01-04T12:31:35.157Z,7.06
2023-01-04T12:34:43.422Z,7.23
2023-01-04T12:37:13.876Z,6.97
2023-01-04T12:39:45.653Z,6.89
2023-01-04T12:42:28.221Z,6.41
2023-01-04T12:45:22.762Z,7.22
2023-01-04T12:48:13.025Z,7.24
2023-01-04T12:51:37.242Z,7.21
2023-01-04T12:54:31.967Z,7.16
2023-01-04T12:57:25.345Z,7.25
2023-01-04T12:59:59.087Z,7.30
2023-01-04T13:02:29.523Z,6.59
2023-01-04T13:05:43.677Z,7.30
2023-01-04T13:07:52.566Z,7.35
2023-01-04T13:10:30.175Z,7.30
2023-01-04T13:13:36.224Z,7.36
2023-01-04T13:16:18.610Z,7.29
2023-01-04T13:18:50.385Z,7.42
2023-01-04T13:21:28.904Z,7.46
2023-01-04T13:24:01.939Z,7.39
2023-01-04T13:26:40.619Z,7.37
2023-01-04T13:29:22.139Z,7.38
2023-01-04T13:31:55.361Z,7.41
2023-01-04T13:34:28.476Z,7.37
2023-01-04T13:37:15.009Z,7.31
2023-01-04T13:39:47.864Z,7.29
2023-01-04T13:42:24.916Z,7.31
2023-01-04T13:45:35.386Z,7.32
2023-01-04T13:48:10.467Z,7.41
2023-01-04T13:50:44.067Z,7.46
2023-01-04T13:53:22.099Z,7.40
2023-01-04T13:55:56.463Z,7.49
2023-01-04T13:58:27.268Z,7.45
2023-01-04T14:00:59.960Z,7.46
2023-01-04T14:03:37.121Z,7.36
2023-01-04T14:06:26.554Z,7.38
2023-01-04T14:09:06.593Z,7.42
2023-01-04T14:12:07.266Z,7.45
2023-01-04T14:14:46.121Z,7.55
2023-01-04T14:17:24.639Z,7.47
2023-01-04T14:19:55.748Z,7.44
2023-01-04T14:22:42.190Z,7.48
2023-01-04T14:25:56.127Z,7.58
2023-01-04T14:28:41.855Z,7.59
2023-01-04T14:31:30.426Z,7.62
2023-01-04T14:33:58.917Z,7.62
2023-01-04T14:36:30.079Z,8.33
2023-01-04T14:39:19.509Z,7.78
2023-01-04T14:41:57.541Z,7.69
2023-01-04T14:44:30.849Z,7.60
2023-01-04T14:47:03.947Z,7.76
2023-01-04T14:49:32.140Z,7.80
2023-01-04T14:52:02.323Z,7.78
2023-01-04T14:54:31.852Z,7.79
2023-01-04T14:57:00.649Z,6.68
2023-01-04T14:59:30.566Z,7.87
2023-01-04T15:01:59.435Z,7.83
2023-01-04T15:04:32.518Z,7.82
2023-01-04T15:07:02.368Z,7.84
2023-01-04T15:09:31.451Z,7.90
2023-01-04T15:11:59.893Z,7.74
2023-01-04T15:14:29.465Z,7.88
2023-01-04T15:16:57.632Z,7.91
2023-01-04T15:19:25.884Z,7.86
2023-01-04T15:21:54.103Z,7.88
2023-01-04T15:24:22.595Z,7.94
2023-01-04T15:26:50.759Z,7.92
2023-01-04T15:29:18.982Z,7.93
2023-01-04T15:31:48.623Z,7.95
2023-01-04T15:34:18.025Z,7.91
2023-01-04T15:36:46.346Z,7.88
2023-01-04T15:39:15.646Z,8.01
2023-01-04T15:42:01.453Z,7.31
2023-01-04T15:44:29.674Z,7.97
2023-01-04T15:47:00.019Z,7.94
2023-01-04T15:49:30.937Z,7.94
2023-01-04T15:51:59.312Z,7.88
2023-01-04T15:54:28.405Z,7.86
2023-01-04T15:56:56.900Z,7.79
2023-01-04T15:59:25.688Z,7.86
2023-01-04T16:01:54.126Z,7.85
2023-01-04T16:04:24.003Z,7.79
2023-01-04T16:06:52.174Z,7.76
2023-01-04T16:09:20.503Z,7.86
2023-01-04T16:12:06.555Z,7.75
2023-01-04T16:14:34.763Z,7.83
2023-01-04T16:17:02.995Z,7.98
2023-01-04T16:19:34.136Z,7.94
2023-01-04T16:22:02.572Z,7.88
2023-01-04T16:25:09.254Z,7.96
2023-01-04T16:27:18.959Z,7.87
2023-01-04T16:29:47.184Z,7.88
2023-01-04T16:32:15.376Z,7.95
2023-01-04T16:34:45.121Z,7.93
2023-01-04T16:37:13.342Z,7.83
2023-01-04T16:42:29.879Z,7.93
2023-01-04T16:44:58.069Z,7.88
2023-01-04T16:47:26.267Z,7.81
2023-01-04T16:49:55.959Z,8.01
2023-01-04T16:52:27.136Z,7.86
2023-01-04T16:54:55.417Z,7.97
2023-01-04T16:57:23.979Z,7.98
2023-01-04T16:59:52.278Z,7.88
2023-01-04T17:02:20.662Z,8.02
2023-01-04T17:04:54.426Z,8.02
2023-01-04T17:07:24.056Z,8.04
2023-01-04T17:09:52.213Z,8.03
2023-01-04T17:17:59.822Z,7.98
2023-01-04T17:20:27.983Z,7.97
2023-01-04T17:22:57.530Z,7.92
2023-01-04T17:25:25.763Z,7.95
2023-01-04T17:27:54.012Z,7.89
2023-01-04T17:30:22.224Z,7.81
2023-01-04T17:32:50.435Z,7.99
2023-01-04T17:35:18.752Z,7.90
2023-01-04T17:37:46.945Z,7.81
2023-01-04T17:40:22.587Z,7.92
2023-01-04T17:42:51.487Z,7.87
2023-01-04T17:45:19.853Z,7.88
2023-01-04T17:47:48.248Z,7.81
2023-01-04T17:50:18.049Z,7.87
2023-01-04T17:52:47.522Z,7.79
2023-01-04T17:55:17.711Z,7.82
2023-01-04T17:57:46.307Z,7.96
2023-01-04T18:00:16.028Z,7.05
2023-01-04T18:02:44.978Z,8.01
2023-01-04T18:05:13.525Z,7.94
2023-01-04T18:07:41.671Z,8.00
2023-01-04T18:10:20.747Z,7.94
2023-01-04T18:12:56.421Z,8.06
2023-01-04T18:15:26.306Z,7.88
2023-01-04T18:17:54.464Z,8.01
2023-01-04T18:20:25.568Z,7.98
2023-01-04T18:22:53.812Z,8.03
2023-01-04T18:25:22.041Z,7.95
2023-01-04T18:27:50.303Z,8.02
2023-01-04T18:30:20.514Z,7.93
2023-01-04T18:32:48.687Z,7.74
2023-01-04T18:35:17.017Z,7.94
2023-01-04T18:37:46.339Z,7.90
2023-01-04T18:40:14.740Z,8.00
2023-01-04T18:42:48.209Z,8.03
2023-01-04T18:45:17.162Z,7.91
2023-01-04T18:47:48.015Z,8.01
2023-01-04T18:50:17.139Z,7.99
2023-01-04T18:52:45.620Z,7.92
2023-01-04T18:55:15.205Z,7.99
2023-01-04T18:57:43.510Z,7.93
2023-01-04T19:00:13.688Z,8.02
2023-01-04T19:02:42.088Z,7.95
2023-01-04T19:05:13.448Z,7.93
2023-01-04T19:07:41.693Z,7.91
2023-01-04T19:10:10.615Z,7.72
2023-01-04T19:12:39.019Z,7.82
2023-01-04T19:15:10.142Z,7.80
2023-01-04T19:17:38.753Z,7.75
2023-01-04T19:20:08.690Z,7.69
2023-01-04T19:22:38.209Z,7.63
2023-01-04T19:25:08.041Z,7.61
2023-01-04T19:27:36.526Z,7.54
2023-01-04T19:30:06.351Z,7.48
2023-01-04T19:32:34.600Z,7.42
2023-01-04T19:35:02.937Z,7.51
2023-01-04T19:37:31.226Z,7.44
2023-01-04T19:40:00.834Z,7.00
2023-01-04T19:42:29.067Z,7.40
2023-01-04T19:44:58.073Z,7.40
2023-01-04T19:47:26.272Z,7.34
2023-01-04T19:49:54.443Z,7.25
2023-01-04T19:52:22.618Z,7.35
2023-01-04T19:54:50.825Z,7.22
2023-01-04T19:57:20.391Z,7.31
2023-01-04T19:59:48.639Z,7.27
2023-01-04T20:02:16.983Z,7.26
2023-01-04T20:04:45.382Z,7.23
2023-01-04T20:07:13.640Z,7.19
2023-01-04T20:09:42.005Z,7.24
2023-01-04T20:12:10.184Z,7.27
2023-01-04T20:14:39.896Z,7.24
2023-01-04T20:17:08.383Z,7.33
2023-01-04T20:19:36.678Z,7.33
2023-01-04T20:22:04.832Z,7.49
2023-01-04T20:24:33.257Z,7.33
2023-01-04T20:27:01.488Z,7.40
2023-01-04T20:29:29.687Z,7.42
2023-01-04T20:32:00.675Z,7.47
2023-01-04T20:34:29.000Z,7.51
2023-01-04T20:36:57.429Z,7.47
2023-01-04T20:39:26.051Z,7.65
2023-01-04T20:42:11.699Z,7.65
2023-01-04T20:44:40.294Z,7.66
2023-01-04T20:47:09.886Z,7.77
2023-01-04T20:49:38.147Z,7.62
2023-01-04T20:52:06.495Z,7.53
2023-01-04T20:54:34.708Z,7.87
2023-01-04T20:57:02.891Z,7.91
2023-01-04T20:59:31.318Z,7.81
2023-01-04T21:01:59.620Z,7.91
2023-01-04T21:04:45.912Z,7.94
2023-01-04T21:07:14.854Z,7.86
2023-01-04T21:09:43.046Z,7.93
2023-01-04T21:12:11.205Z,7.91
2023-01-04T21:14:40.099Z,8.03
2023-01-04T21:17:08.259Z,8.10
2023-01-04T21:19:36.478Z,8.03
2023-01-04T21:22:06.026Z,8.00
2023-01-04T21:24:34.319Z,8.10
2023-01-04T21:27:02.588Z,8.01
2023-01-04T21:29:31.080Z,8.12
2023-01-04T21:31:59.610Z,8.09
2023-01-04T21:34:28.217Z,8.13
2023-01-04T21:36:56.434Z,8.18
2023-01-04T21:39:26.047Z,8.10
2023-01-04T21:41:54.895Z,8.11
2023-01-04T21:44:23.106Z,8.13
2023-01-04T21:46:51.742Z,8.16
2023-01-04T21:49:20.161Z,8.17
2023-01-04T21:51:48.270Z,8.19
2023-01-04T21:54:16.816Z,8.12
2023-01-04T21:56:46.833Z,8.22
2023-01-04T21:59:15.105Z,8.33
2023-01-04T22:01:43.508Z,8.31
2023-01-04T22:04:11.818Z,8.37
2023-01-04T22:06:41.542Z,8.31
2023-01-04T22:09:09.751Z,8.33
2023-01-04T22:11:37.954Z,8.37
2023-01-04T22:14:07.554Z,8.29
2023-01-04T22:16:35.832Z,8.31
2023-01-04T22:19:04.138Z,8.26
2023-01-04T22:21:32.337Z,8.31
2023-01-04T22:24:01.076Z,8.20
2023-01-04T22:26:29.338Z,8.22
2023-01-04T22:28:57.670Z,8.28
2023-01-04T22:31:27.273Z,8.29
2023-01-04T22:33:55.508Z,8.31
2023-01-04T22:36:24.228Z,7.16
2023-01-04T22:38:53.566Z,8.27
2023-01-04T22:41:23.879Z,8.22
2023-01-04T22:43:56.738Z,8.24
2023-01-04T22:46:27.902Z,8.29
2023-01-04T22:48:56.432Z,8.17
2023-01-04T22:51:27.407Z,8.41
2023-01-04T22:53:57.118Z,8.24
2023-01-04T22:56:26.034Z,8.28
2023-01-04T22:58:56.856Z,8.30
2023-01-04T23:01:29.530Z,9.05
2023-01-04T23:03:59.570Z,8.46
2023-01-04T23:06:29.419Z,8.33
2023-01-04T23:08:59.544Z,8.41
2023-01-04T23:11:29.585Z,8.55
2023-01-04T23:13:58.632Z,8.48
2023-01-04T23:16:32.764Z,8.41
2023-01-04T23:19:02.028Z,8.25
2023-01-04T23:21:30.549Z,8.24
2023-01-04T23:23:59.025Z,8.22
2023-01-04T23:26:29.623Z,8.20
2023-01-04T23:28:58.629Z,8.27
2023-01-04T23:31:32.446Z,7.12
2023-01-04T23:34:04.300Z,8.77
2023-01-04T23:36:35.787Z,8.22
2023-01-04T23:39:07.525Z,7.85
2023-01-04T23:41:46.112Z,8.18
2023-01-04T23:44:17.366Z,8.09
2023-01-04T23:46:47.489Z,8.22
2023-01-04T23:49:15.713Z,8.13
2023-01-04T23:51:43.899Z,8.16
2023-01-04T23:54:12.429Z,8.02
2023-01-04T23:56:41.536Z,7.99
2023-01-04T23:59:10.426Z,8.08
